sensor_id;sensor_type;location;lat;lon;timestamp;pressure;altitude;pressure_sealevel;temperature
65290;BMP180;51893;59.754;10.110;2024-02-21T00:00:38;100443.60;;;2.20
65290;BMP180;51893;59.754;10.110;2024-02-21T00:03:27;100432.40;;;2.30
65290;BMP180;51893;59.754;10.110;2024-02-21T00:05:55;100429.40;;;2.30
65290;BMP180;51893;59.754;10.110;2024-02-21T00:08:24;100434.20;;;2.30
65290;BMP180;51893;59.754;10.110;2024-02-21T00:10:53;100432.60;;;2.30
65290;BMP180;51893;59.754;10.110;2024-02-21T00:13:22;100425.40;;;2.40
65290;BMP180;51893;59.754;10.110;2024-02-21T00:15:51;100422.60;;;2.34
65290;BMP180;51893;59.754;10.110;2024-02-21T00:18:19;100417.00;;;2.40
65290;BMP180;51893;59.754;10.110;2024-02-21T00:20:47;100421.00;;;2.42
65290;BMP180;51893;59.754;10.110;2024-02-21T00:23:16;100419.80;;;2.50
65290;BMP180;51893;59.754;10.110;2024-02-21T00:25:44;100427.60;;;2.60
65290;BMP180;51893;59.754;10.110;2024-02-21T00:28:12;100425.40;;;2.60
65290;BMP180;51893;59.754;10.110;2024-02-21T00:30:41;100426.80;;;2.62
65290;BMP180;51893;59.754;10.110;2024-02-21T00:33:10;100419.40;;;2.70
65290;BMP180;51893;59.754;10.110;2024-02-21T00:35:38;100410.40;;;2.70
65290;BMP180;51893;59.754;10.110;2024-02-21T00:38:06;100409.80;;;2.60
65290;BMP180;51893;59.754;10.110;2024-02-21T00:40:35;100403.80;;;2.54
65290;BMP180;51893;59.754;10.110;2024-02-21T00:43:03;100399.60;;;2.50
65290;BMP180;51893;59.754;10.110;2024-02-21T00:45:31;100390.60;;;2.40
65290;BMP180;51893;59.754;10.110;2024-02-21T00:47:59;100388.20;;;2.40
65290;BMP180;51893;59.754;10.110;2024-02-21T00:50:27;100387.80;;;2.40
65290;BMP180;51893;59.754;10.110;2024-02-21T00:52:55;100384.00;;;2.34
65290;BMP180;51893;59.754;10.110;2024-02-21T00:55:23;100389.40;;;2.30
65290;BMP180;51893;59.754;10.110;2024-02-21T00:57:52;100386.80;;;2.20
65290;BMP180;51893;59.754;10.110;2024-02-21T01:00:20;100383.20;;;2.20
65290;BMP180;51893;59.754;10.110;2024-02-21T01:02:48;100375.20;;;2.10
65290;BMP180;51893;59.754;10.110;2024-02-21T01:05:20;100374.00;;;2.00
65290;BMP180;51893;59.754;10.110;2024-02-21T01:07:48;100376.80;;;2.00
65290;BMP180;51893;59.754;10.110;2024-02-21T01:10:17;100378.40;;;2.00
65290;BMP180;51893;59.754;10.110;2024-02-21T01:12:45;100382.00;;;1.90
65290;BMP180;51893;59.754;10.110;2024-02-21T01:15:13;100381.80;;;1.90
65290;BMP180;51893;59.754;10.110;2024-02-21T01:17:41;100365.80;;;1.90
65290;BMP180;51893;59.754;10.110;2024-02-21T01:20:10;100349.60;;;2.00
65290;BMP180;51893;59.754;10.110;2024-02-21T01:22:39;100345.00;;;2.00
65290;BMP180;51893;59.754;10.110;2024-02-21T01:25:08;100341.80;;;2.00
65290;BMP180;51893;59.754;10.110;2024-02-21T01:27:36;100351.00;;;2.00
65290;BMP180;51893;59.754;10.110;2024-02-21T01:30:05;100346.00;;;2.00
65290;BMP180;51893;59.754;10.110;2024-02-21T01:32:33;100343.20;;;2.00
65290;BMP180;51893;59.754;10.110;2024-02-21T01:35:02;100341.80;;;2.10
65290;BMP180;51893;59.754;10.110;2024-02-21T01:37:31;100343.20;;;2.18
65290;BMP180;51893;59.754;10.110;2024-02-21T01:39:59;100349.20;;;2.30
65290;BMP180;51893;59.754;10.110;2024-02-21T01:42:27;100351.80;;;2.20
65290;BMP180;51893;59.754;10.110;2024-02-21T01:44:55;100352.80;;;2.10
65290;BMP180;51893;59.754;10.110;2024-02-21T01:47:24;100363.40;;;2.00
65290;BMP180;51893;59.754;10.110;2024-02-21T01:49:55;100366.80;;;2.00
65290;BMP180;51893;59.754;10.110;2024-02-21T01:52:24;100365.20;;;2.06
65290;BMP180;51893;59.754;10.110;2024-02-21T01:54:52;100354.60;;;2.10
65290;BMP180;51893;59.754;10.110;2024-02-21T01:57:20;100348.20;;;2.10
65290;BMP180;51893;59.754;10.110;2024-02-21T01:59:52;100336.60;;;2.00
65290;BMP180;51893;59.754;10.110;2024-02-21T02:02:21;100333.80;;;2.00
65290;BMP180;51893;59.754;10.110;2024-02-21T02:04:51;100323.80;;;2.00
65290;BMP180;51893;59.754;10.110;2024-02-21T02:07:20;100312.60;;;2.00
65290;BMP180;51893;59.754;10.110;2024-02-21T02:09:48;100306.80;;;2.00
65290;BMP180;51893;59.754;10.110;2024-02-21T02:12:17;100299.20;;;2.00
65290;BMP180;51893;59.754;10.110;2024-02-21T02:14:46;100293.20;;;2.00
65290;BMP180;51893;59.754;10.110;2024-02-21T02:17:15;100289.40;;;2.10
65290;BMP180;51893;59.754;10.110;2024-02-21T02:19:44;100286.80;;;2.10
65290;BMP180;51893;59.754;10.110;2024-02-21T02:22:22;100281.00;;;2.10
65290;BMP180;51893;59.754;10.110;2024-02-21T02:24:51;100274.80;;;2.10
65290;BMP180;51893;59.754;10.110;2024-02-21T02:27:19;100271.80;;;2.10
65290;BMP180;51893;59.754;10.110;2024-02-21T02:29:47;100269.80;;;2.20
65290;BMP180;51893;59.754;10.110;2024-02-21T02:32:16;100269.80;;;2.20
65290;BMP180;51893;59.754;10.110;2024-02-21T02:34:44;100279.80;;;2.26
65290;BMP180;51893;59.754;10.110;2024-02-21T02:37:12;100288.20;;;2.28
65290;BMP180;51893;59.754;10.110;2024-02-21T02:39:41;100295.40;;;2.20
65290;BMP180;51893;59.754;10.110;2024-02-21T02:42:11;100308.40;;;2.20
65290;BMP180;51893;59.754;10.110;2024-02-21T02:44:39;100318.80;;;2.20
65290;BMP180;51893;59.754;10.110;2024-02-21T02:47:08;100319.60;;;2.14
65290;BMP180;51893;59.754;10.110;2024-02-21T02:49:37;100322.40;;;2.10
65290;BMP180;51893;59.754;10.110;2024-02-21T02:52:05;100309.80;;;2.00
65290;BMP180;51893;59.754;10.110;2024-02-21T02:54:33;100305.00;;;2.00
65290;BMP180;51893;59.754;10.110;2024-02-21T02:57:01;100301.60;;;1.96
65290;BMP180;51893;59.754;10.110;2024-02-21T02:59:31;100299.20;;;1.90
65290;BMP180;51893;59.754;10.110;2024-02-21T03:02:00;100302.80;;;1.86
65290;BMP180;51893;59.754;10.110;2024-02-21T03:04:28;100308.40;;;1.84
65290;BMP180;51893;59.754;10.110;2024-02-21T03:06:57;100308.80;;;1.90
65290;BMP180;51893;59.754;10.110;2024-02-21T03:09:26;100309.00;;;1.90
65290;BMP180;51893;59.754;10.110;2024-02-21T03:11:54;100308.40;;;1.80
65290;BMP180;51893;59.754;10.110;2024-02-21T03:14:25;100308.40;;;1.80
65290;BMP180;51893;59.754;10.110;2024-02-21T03:16:53;100316.80;;;1.80
65290;BMP180;51893;59.754;10.110;2024-02-21T03:19:21;100316.40;;;1.80
65290;BMP180;51893;59.754;10.110;2024-02-21T03:21:52;100318.00;;;1.90
65290;BMP180;51893;59.754;10.110;2024-02-21T03:24:21;100314.20;;;1.90
65290;BMP180;51893;59.754;10.110;2024-02-21T03:26:49;100308.20;;;1.90
65290;BMP180;51893;59.754;10.110;2024-02-21T03:29:18;100312.20;;;1.90
65290;BMP180;51893;59.754;10.110;2024-02-21T03:31:46;100308.00;;;1.90
65290;BMP180;51893;59.754;10.110;2024-02-21T03:34:14;100299.60;;;1.80
65290;BMP180;51893;59.754;10.110;2024-02-21T03:36:42;100297.00;;;1.80
65290;BMP180;51893;59.754;10.110;2024-02-21T03:39:10;100301.20;;;1.80
65290;BMP180;51893;59.754;10.110;2024-02-21T03:41:38;100297.00;;;1.70
65290;BMP180;51893;59.754;10.110;2024-02-21T03:44:07;100287.60;;;1.70
65290;BMP180;51893;59.754;10.110;2024-02-21T03:46:35;100290.20;;;1.60
65290;BMP180;51893;59.754;10.110;2024-02-21T03:49:03;100290.60;;;1.60
65290;BMP180;51893;59.754;10.110;2024-02-21T03:51:31;100286.60;;;1.60
65290;BMP180;51893;59.754;10.110;2024-02-21T03:53:59;100283.00;;;1.70
65290;BMP180;51893;59.754;10.110;2024-02-21T03:56:27;100288.40;;;1.80
65290;BMP180;51893;59.754;10.110;2024-02-21T03:58:55;100287.80;;;1.80
65290;BMP180;51893;59.754;10.110;2024-02-21T04:01:24;100292.40;;;1.80
65290;BMP180;51893;59.754;10.110;2024-02-21T04:03:52;100289.40;;;1.80
65290;BMP180;51893;59.754;10.110;2024-02-21T04:06:20;100290.20;;;1.76
65290;BMP180;51893;59.754;10.110;2024-02-21T04:08:48;100292.40;;;1.74
65290;BMP180;51893;59.754;10.110;2024-02-21T04:11:19;100300.00;;;1.70
65290;BMP180;51893;59.754;10.110;2024-02-21T04:13:47;100298.80;;;1.70
65290;BMP180;51893;59.754;10.110;2024-02-21T04:16:19;100301.80;;;1.70
65290;BMP180;51893;59.754;10.110;2024-02-21T04:18:47;100307.00;;;1.66
65290;BMP180;51893;59.754;10.110;2024-02-21T04:21:17;100312.40;;;1.60
65290;BMP180;51893;59.754;10.110;2024-02-21T04:23:45;100312.20;;;1.68
65290;BMP180;51893;59.754;10.110;2024-02-21T04:26:13;100312.40;;;1.60
65290;BMP180;51893;59.754;10.110;2024-02-21T04:28:45;100310.00;;;1.60
65290;BMP180;51893;59.754;10.110;2024-02-21T04:31:13;100299.60;;;1.60
65290;BMP180;51893;59.754;10.110;2024-02-21T04:33:43;100296.80;;;1.60
65290;BMP180;51893;59.754;10.110;2024-02-21T04:36:11;100293.00;;;1.60
65290;BMP180;51893;59.754;10.110;2024-02-21T04:38:40;100288.60;;;1.60
65290;BMP180;51893;59.754;10.110;2024-02-21T04:41:08;100296.60;;;1.50
65290;BMP180;51893;59.754;10.110;2024-02-21T04:43:36;100294.20;;;1.50
65290;BMP180;51893;59.754;10.110;2024-02-21T04:46:05;100293.40;;;1.50
65290;BMP180;51893;59.754;10.110;2024-02-21T04:48:32;100295.80;;;1.50
65290;BMP180;51893;59.754;10.110;2024-02-21T04:51:01;100303.20;;;1.40
65290;BMP180;51893;59.754;10.110;2024-02-21T04:53:29;100300.00;;;1.38
65290;BMP180;51893;59.754;10.110;2024-02-21T04:55:57;100306.20;;;1.30
65290;BMP180;51893;59.754;10.110;2024-02-21T04:58:25;100300.60;;;1.30
65290;BMP180;51893;59.754;10.110;2024-02-21T05:00:53;100302.00;;;1.30
65290;BMP180;51893;59.754;10.110;2024-02-21T05:03:23;100301.40;;;1.30
65290;BMP180;51893;59.754;10.110;2024-02-21T05:05:52;100301.00;;;1.20
65290;BMP180;51893;59.754;10.110;2024-02-21T05:08:20;100294.20;;;1.20
65290;BMP180;51893;59.754;10.110;2024-02-21T05:10:49;100294.40;;;1.12
65290;BMP180;51893;59.754;10.110;2024-02-21T05:13:17;100295.00;;;1.10
65290;BMP180;51893;59.754;10.110;2024-02-21T05:15:45;100295.40;;;1.10
65290;BMP180;51893;59.754;10.110;2024-02-21T05:18:13;100288.00;;;1.10
65290;BMP180;51893;59.754;10.110;2024-02-21T05:20:41;100290.60;;;1.10
65290;BMP180;51893;59.754;10.110;2024-02-21T05:23:10;100293.60;;;1.10
65290;BMP180;51893;59.754;10.110;2024-02-21T05:25:38;100299.20;;;1.10
65290;BMP180;51893;59.754;10.110;2024-02-21T05:28:06;100302.20;;;1.10
65290;BMP180;51893;59.754;10.110;2024-02-21T05:30:37;100310.60;;;1.18
65290;BMP180;51893;59.754;10.110;2024-02-21T05:33:06;100310.00;;;1.20
65290;BMP180;51893;59.754;10.110;2024-02-21T05:35:35;100319.00;;;1.18
65290;BMP180;51893;59.754;10.110;2024-02-21T05:38:04;100315.40;;;1.20
65290;BMP180;51893;59.754;10.110;2024-02-21T05:40:35;100313.80;;;1.20
65290;BMP180;51893;59.754;10.110;2024-02-21T05:43:04;100315.40;;;1.14
65290;BMP180;51893;59.754;10.110;2024-02-21T05:45:32;100320.60;;;1.10
65290;BMP180;51893;59.754;10.110;2024-02-21T05:48:00;100313.20;;;1.10
65290;BMP180;51893;59.754;10.110;2024-02-21T05:50:28;100314.00;;;1.10
65290;BMP180;51893;59.754;10.110;2024-02-21T05:52:56;100329.60;;;1.10
65290;BMP180;51893;59.754;10.110;2024-02-21T05:55:25;100330.40;;;1.18
65290;BMP180;51893;59.754;10.110;2024-02-21T05:57:53;100327.40;;;1.20
65290;BMP180;51893;59.754;10.110;2024-02-21T06:00:23;100339.80;;;1.20
65290;BMP180;51893;59.754;10.110;2024-02-21T06:02:52;100348.60;;;1.20
65290;BMP180;51893;59.754;10.110;2024-02-21T06:05:20;100342.20;;;1.10
65290;BMP180;51893;59.754;10.110;2024-02-21T06:07:48;100351.20;;;1.02
65290;BMP180;51893;59.754;10.110;2024-02-21T06:10:17;100359.00;;;1.04
65290;BMP180;51893;59.754;10.110;2024-02-21T06:12:45;100360.20;;;1.04
65290;BMP180;51893;59.754;10.110;2024-02-21T06:15:14;100359.60;;;1.08
65290;BMP180;51893;59.754;10.110;2024-02-21T06:17:42;100354.20;;;1.10
65290;BMP180;51893;59.754;10.110;2024-02-21T06:20:10;100361.00;;;1.10
65290;BMP180;51893;59.754;10.110;2024-02-21T06:22:38;100364.40;;;1.10
65290;BMP180;51893;59.754;10.110;2024-02-21T06:25:08;100368.60;;;1.10
65290;BMP180;51893;59.754;10.110;2024-02-21T06:27:37;100366.20;;;1.10
65290;BMP180;51893;59.754;10.110;2024-02-21T06:30:06;100372.00;;;1.10
65290;BMP180;51893;59.754;10.110;2024-02-21T06:32:34;100373.60;;;1.10
65290;BMP180;51893;59.754;10.110;2024-02-21T06:35:02;100369.60;;;1.10
65290;BMP180;51893;59.754;10.110;2024-02-21T06:37:31;100374.00;;;1.04
65290;BMP180;51893;59.754;10.110;2024-02-21T06:40:00;100384.20;;;1.00
65290;BMP180;51893;59.754;10.110;2024-02-21T06:42:28;100404.60;;;1.06
65290;BMP180;51893;59.754;10.110;2024-02-21T06:44:57;100413.20;;;1.04
65290;BMP180;51893;59.754;10.110;2024-02-21T06:47:25;100414.20;;;1.10
65290;BMP180;51893;59.754;10.110;2024-02-21T06:49:53;100411.60;;;1.10
65290;BMP180;51893;59.754;10.110;2024-02-21T06:52:21;100418.00;;;1.10
65290;BMP180;51893;59.754;10.110;2024-02-21T06:54:50;100405.40;;;1.10
65290;BMP180;51893;59.754;10.110;2024-02-21T06:57:19;100396.00;;;1.10
65290;BMP180;51893;59.754;10.110;2024-02-21T06:59:47;100388.40;;;1.10
65290;BMP180;51893;59.754;10.110;2024-02-21T07:02:15;100389.20;;;1.10
65290;BMP180;51893;59.754;10.110;2024-02-21T07:04:43;100391.20;;;1.10
65290;BMP180;51893;59.754;10.110;2024-02-21T07:07:11;100380.60;;;1.12
65290;BMP180;51893;59.754;10.110;2024-02-21T07:09:40;100362.20;;;1.20
65290;BMP180;51893;59.754;10.110;2024-02-21T07:12:08;100370.20;;;1.30
65290;BMP180;51893;59.754;10.110;2024-02-21T07:14:39;100382.60;;;1.30
65290;BMP180;51893;59.754;10.110;2024-02-21T07:17:07;100400.00;;;1.32
65290;BMP180;51893;59.754;10.110;2024-02-21T07:19:35;100421.80;;;1.40
65290;BMP180;51893;59.754;10.110;2024-02-21T07:22:03;100428.40;;;1.40
65290;BMP180;51893;59.754;10.110;2024-02-21T07:24:31;100425.00;;;1.40
65290;BMP180;51893;59.754;10.110;2024-02-21T07:27:00;100424.60;;;1.40
65290;BMP180;51893;59.754;10.110;2024-02-21T07:29:35;100443.00;;;1.40
65290;BMP180;51893;59.754;10.110;2024-02-21T07:32:03;100445.60;;;1.36
65290;BMP180;51893;59.754;10.110;2024-02-21T07:34:31;100446.80;;;1.30
65290;BMP180;51893;59.754;10.110;2024-02-21T07:37:02;100446.60;;;1.30
65290;BMP180;51893;59.754;10.110;2024-02-21T07:39:36;100450.80;;;1.20
65290;BMP180;51893;59.754;10.110;2024-02-21T07:42:05;100444.60;;;1.18
65290;BMP180;51893;59.754;10.110;2024-02-21T07:44:33;100450.00;;;1.10
65290;BMP180;51893;59.754;10.110;2024-02-21T07:47:02;100459.20;;;1.10
65290;BMP180;51893;59.754;10.110;2024-02-21T07:49:30;100469.60;;;1.10
65290;BMP180;51893;59.754;10.110;2024-02-21T07:52:00;100472.40;;;1.10
65290;BMP180;51893;59.754;10.110;2024-02-21T07:54:28;100471.00;;;1.10
65290;BMP180;51893;59.754;10.110;2024-02-21T07:56:57;100467.60;;;1.12
65290;BMP180;51893;59.754;10.110;2024-02-21T07:59:25;100469.60;;;1.10
65290;BMP180;51893;59.754;10.110;2024-02-21T08:01:57;100470.20;;;1.12
65290;BMP180;51893;59.754;10.110;2024-02-21T08:04:26;100472.80;;;1.20
65290;BMP180;51893;59.754;10.110;2024-02-21T08:06:54;100469.00;;;1.20
65290;BMP180;51893;59.754;10.110;2024-02-21T08:09:23;100461.80;;;1.20
65290;BMP180;51893;59.754;10.110;2024-02-21T08:11:51;100448.20;;;1.20
65290;BMP180;51893;59.754;10.110;2024-02-21T08:14:20;100432.60;;;1.20
65290;BMP180;51893;59.754;10.110;2024-02-21T08:16:49;100424.40;;;1.20
65290;BMP180;51893;59.754;10.110;2024-02-21T08:19:17;100419.20;;;1.20
65290;BMP180;51893;59.754;10.110;2024-02-21T08:21:46;100414.40;;;1.20
65290;BMP180;51893;59.754;10.110;2024-02-21T08:24:16;100418.00;;;1.30
65290;BMP180;51893;59.754;10.110;2024-02-21T08:26:44;100419.60;;;1.30
65290;BMP180;51893;59.754;10.110;2024-02-21T08:29:13;100419.60;;;1.40
65290;BMP180;51893;59.754;10.110;2024-02-21T08:31:41;100427.00;;;1.40
65290;BMP180;51893;59.754;10.110;2024-02-21T08:34:11;100434.80;;;1.48
65290;BMP180;51893;59.754;10.110;2024-02-21T08:36:43;100444.40;;;1.50
65290;BMP180;51893;59.754;10.110;2024-02-21T08:39:11;100449.60;;;1.50
65290;BMP180;51893;59.754;10.110;2024-02-21T08:41:39;100447.40;;;1.60
65290;BMP180;51893;59.754;10.110;2024-02-21T08:44:24;100443.40;;;1.56
65290;BMP180;51893;59.754;10.110;2024-02-21T08:46:55;100459.00;;;1.60
65290;BMP180;51893;59.754;10.110;2024-02-21T08:49:25;100460.80;;;1.50
65290;BMP180;51893;59.754;10.110;2024-02-21T08:52:04;100451.60;;;1.40
65290;BMP180;51893;59.754;10.110;2024-02-21T08:54:33;100452.00;;;1.30
65290;BMP180;51893;59.754;10.110;2024-02-21T08:57:02;100466.60;;;1.20
65290;BMP180;51893;59.754;10.110;2024-02-21T08:59:32;100474.60;;;1.14
65290;BMP180;51893;59.754;10.110;2024-02-21T09:02:00;100477.20;;;1.20
65290;BMP180;51893;59.754;10.110;2024-02-21T09:04:28;100482.60;;;1.22
65290;BMP180;51893;59.754;10.110;2024-02-21T09:06:56;100478.00;;;1.28
65290;BMP180;51893;59.754;10.110;2024-02-21T09:09:25;100480.60;;;1.30
65290;BMP180;51893;59.754;10.110;2024-02-21T09:11:56;100474.60;;;1.30
65290;BMP180;51893;59.754;10.110;2024-02-21T09:14:25;100470.00;;;1.30
65290;BMP180;51893;59.754;10.110;2024-02-21T09:16:55;100461.80;;;1.40
65290;BMP180;51893;59.754;10.110;2024-02-21T09:19:23;100462.00;;;1.36
65290;BMP180;51893;59.754;10.110;2024-02-21T09:21:52;100463.00;;;1.40
65290;BMP180;51893;59.754;10.110;2024-02-21T09:24:20;100462.80;;;1.40
65290;BMP180;51893;59.754;10.110;2024-02-21T09:26:48;100458.20;;;1.50
65290;BMP180;51893;59.754;10.110;2024-02-21T09:29:16;100457.00;;;1.50
65290;BMP180;51893;59.754;10.110;2024-02-21T09:31:44;100464.40;;;1.50
65290;BMP180;51893;59.754;10.110;2024-02-21T09:34:13;100470.20;;;1.60
65290;BMP180;51893;59.754;10.110;2024-02-21T09:36:41;100468.00;;;1.60
65290;BMP180;51893;59.754;10.110;2024-02-21T09:39:10;100471.40;;;1.60
65290;BMP180;51893;59.754;10.110;2024-02-21T09:41:50;100466.80;;;1.60
65290;BMP180;51893;59.754;10.110;2024-02-21T09:44:24;100467.00;;;1.70
65290;BMP180;51893;59.754;10.110;2024-02-21T09:47:01;100460.40;;;1.60
65290;BMP180;51893;59.754;10.110;2024-02-21T09:49:35;100466.00;;;1.60
65290;BMP180;51893;59.754;10.110;2024-02-21T09:52:08;100462.60;;;1.60
65290;BMP180;51893;59.754;10.110;2024-02-21T09:54:36;100463.40;;;1.60
65290;BMP180;51893;59.754;10.110;2024-02-21T09:57:06;100466.60;;;1.60
65290;BMP180;51893;59.754;10.110;2024-02-21T09:59:33;100464.20;;;1.60
65290;BMP180;51893;59.754;10.110;2024-02-21T10:02:02;100462.20;;;1.70
65290;BMP180;51893;59.754;10.110;2024-02-21T10:04:30;100470.40;;;1.70
65290;BMP180;51893;59.754;10.110;2024-02-21T10:07:00;100466.80;;;1.70
65290;BMP180;51893;59.754;10.110;2024-02-21T10:09:28;100462.60;;;1.70
65290;BMP180;51893;59.754;10.110;2024-02-21T10:12:12;100470.40;;;1.80
65290;BMP180;51893;59.754;10.110;2024-02-21T10:14:41;100474.80;;;1.70
65290;BMP180;51893;59.754;10.110;2024-02-21T10:17:16;100479.00;;;1.80
65290;BMP180;51893;59.754;10.110;2024-02-21T10:19:46;100478.00;;;1.80
65290;BMP180;51893;59.754;10.110;2024-02-21T10:22:17;100479.40;;;1.80
65290;BMP180;51893;59.754;10.110;2024-02-21T10:24:46;100496.40;;;1.90
65290;BMP180;51893;59.754;10.110;2024-02-21T10:27:14;100500.20;;;1.90
65290;BMP180;51893;59.754;10.110;2024-02-21T10:29:49;100504.00;;;1.90
65290;BMP180;51893;59.754;10.110;2024-02-21T10:32:19;100507.00;;;1.90
65290;BMP180;51893;59.754;10.110;2024-02-21T10:34:47;100507.20;;;1.90
65290;BMP180;51893;59.754;10.110;2024-02-21T10:37:20;100513.00;;;1.90
65290;BMP180;51893;59.754;10.110;2024-02-21T10:39:48;100509.20;;;1.98
65290;BMP180;51893;59.754;10.110;2024-02-21T10:42:21;100505.20;;;2.02
65290;BMP180;51893;59.754;10.110;2024-02-21T10:44:51;100506.20;;;2.10
65290;BMP180;51893;59.754;10.110;2024-02-21T10:47:23;100508.00;;;2.10
65290;BMP180;51893;59.754;10.110;2024-02-21T10:50:02;100512.60;;;2.10
65290;BMP180;51893;59.754;10.110;2024-02-21T10:52:42;100518.40;;;2.08
65290;BMP180;51893;59.754;10.110;2024-02-21T10:55:24;100519.40;;;2.04
65290;BMP180;51893;59.754;10.110;2024-02-21T10:57:57;100534.80;;;2.00
65290;BMP180;51893;59.754;10.110;2024-02-21T11:00:30;100539.60;;;1.98
65290;BMP180;51893;59.754;10.110;2024-02-21T11:02:59;100549.60;;;2.00
65290;BMP180;51893;59.754;10.110;2024-02-21T11:05:29;100549.40;;;2.00
65290;BMP180;51893;59.754;10.110;2024-02-21T11:07:58;100554.60;;;2.02
65290;BMP180;51893;59.754;10.110;2024-02-21T11:10:27;100557.20;;;2.00
65290;BMP180;51893;59.754;10.110;2024-02-21T11:13:08;100568.40;;;2.00
65290;BMP180;51893;59.754;10.110;2024-02-21T11:15:37;100576.80;;;2.10
65290;BMP180;51893;59.754;10.110;2024-02-21T11:18:05;100576.60;;;2.10
65290;BMP180;51893;59.754;10.110;2024-02-21T11:20:38;100576.40;;;2.10
65290;BMP180;51893;59.754;10.110;2024-02-21T11:23:06;100574.60;;;2.16
65290;BMP180;51893;59.754;10.110;2024-02-21T11:25:35;100567.40;;;2.20
65290;BMP180;51893;59.754;10.110;2024-02-21T11:28:04;100558.00;;;2.20
65290;BMP180;51893;59.754;10.110;2024-02-21T11:30:36;100543.40;;;2.20
65290;BMP180;51893;59.754;10.110;2024-02-21T11:33:08;100515.60;;;2.20
65290;BMP180;51893;59.754;10.110;2024-02-21T11:35:38;100503.00;;;2.20
65290;BMP180;51893;59.754;10.110;2024-02-21T11:38:12;100475.00;;;2.30
65290;BMP180;51893;59.754;10.110;2024-02-21T11:40:46;100448.60;;;2.46
65290;BMP180;51893;59.754;10.110;2024-02-21T11:43:16;100424.40;;;2.72
65290;BMP180;51893;59.754;10.110;2024-02-21T11:45:45;100414.60;;;3.10
65290;BMP180;51893;59.754;10.110;2024-02-21T11:48:14;100403.00;;;3.20
65290;BMP180;51893;59.754;10.110;2024-02-21T11:50:42;100401.80;;;3.50
65290;BMP180;51893;59.754;10.110;2024-02-21T11:53:10;100407.00;;;3.64
65290;BMP180;51893;59.754;10.110;2024-02-21T11:55:39;100408.60;;;3.50
65290;BMP180;51893;59.754;10.110;2024-02-21T11:58:08;100415.20;;;3.50
65290;BMP180;51893;59.754;10.110;2024-02-21T12:00:37;100420.00;;;3.50
65290;BMP180;51893;59.754;10.110;2024-02-21T12:03:06;100423.40;;;3.60
65290;BMP180;51893;59.754;10.110;2024-02-21T12:05:34;100427.00;;;3.70
65290;BMP180;51893;59.754;10.110;2024-02-21T12:08:04;100428.40;;;3.70
65290;BMP180;51893;59.754;10.110;2024-02-21T12:10:32;100426.80;;;3.82
65290;BMP180;51893;59.754;10.110;2024-02-21T12:13:11;100429.20;;;3.90
65290;BMP180;51893;59.754;10.110;2024-02-21T12:15:39;100431.20;;;3.98
65290;BMP180;51893;59.754;10.110;2024-02-21T12:18:10;100436.00;;;3.90
65290;BMP180;51893;59.754;10.110;2024-02-21T12:20:39;100439.00;;;3.80
65290;BMP180;51893;59.754;10.110;2024-02-21T12:23:10;100439.80;;;3.60
65290;BMP180;51893;59.754;10.110;2024-02-21T12:25:39;100437.00;;;3.40
65290;BMP180;51893;59.754;10.110;2024-02-21T12:28:08;100429.40;;;3.30
65290;BMP180;51893;59.754;10.110;2024-02-21T12:30:36;100420.20;;;3.30
65290;BMP180;51893;59.754;10.110;2024-02-21T12:33:09;100420.60;;;3.40
65290;BMP180;51893;59.754;10.110;2024-02-21T12:35:37;100412.40;;;3.40
65290;BMP180;51893;59.754;10.110;2024-02-21T12:38:05;100404.20;;;3.50
65290;BMP180;51893;59.754;10.110;2024-02-21T12:40:34;100389.80;;;3.60
65290;BMP180;51893;59.754;10.110;2024-02-21T12:43:03;100375.20;;;3.70
65290;BMP180;51893;59.754;10.110;2024-02-21T12:45:32;100361.80;;;3.70
65290;BMP180;51893;59.754;10.110;2024-02-21T12:48:01;100352.80;;;3.70
65290;BMP180;51893;59.754;10.110;2024-02-21T12:50:29;100349.00;;;3.62
65290;BMP180;51893;59.754;10.110;2024-02-21T12:53:01;100353.20;;;3.50
65290;BMP180;51893;59.754;10.110;2024-02-21T12:55:30;100353.00;;;3.40
65290;BMP180;51893;59.754;10.110;2024-02-21T12:58:03;100343.60;;;3.38
65290;BMP180;51893;59.754;10.110;2024-02-21T13:00:34;100345.60;;;3.30
65290;BMP180;51893;59.754;10.110;2024-02-21T13:03:03;100344.80;;;3.30
65290;BMP180;51893;59.754;10.110;2024-02-21T13:05:31;100350.60;;;3.40
65290;BMP180;51893;59.754;10.110;2024-02-21T13:08:00;100364.20;;;3.40
65290;BMP180;51893;59.754;10.110;2024-02-21T13:10:28;100375.60;;;3.40
65290;BMP180;51893;59.754;10.110;2024-02-21T13:12:57;100373.40;;;3.40
65290;BMP180;51893;59.754;10.110;2024-02-21T13:15:25;100385.00;;;3.50
65290;BMP180;51893;59.754;10.110;2024-02-21T13:17:57;100379.60;;;3.50
65290;BMP180;51893;59.754;10.110;2024-02-21T13:20:28;100378.00;;;3.50
65290;BMP180;51893;59.754;10.110;2024-02-21T13:22:57;100380.60;;;3.40
65290;BMP180;51893;59.754;10.110;2024-02-21T13:25:25;100383.00;;;3.40
65290;BMP180;51893;59.754;10.110;2024-02-21T13:27:55;100386.80;;;3.44
65290;BMP180;51893;59.754;10.110;2024-02-21T13:30:23;100379.40;;;3.40
65290;BMP180;51893;59.754;10.110;2024-02-21T13:32:53;100364.80;;;3.40
65290;BMP180;51893;59.754;10.110;2024-02-21T13:35:22;100372.60;;;3.40
65290;BMP180;51893;59.754;10.110;2024-02-21T13:37:50;100382.60;;;3.40
65290;BMP180;51893;59.754;10.110;2024-02-21T13:40:19;100383.60;;;3.40
65290;BMP180;51893;59.754;10.110;2024-02-21T13:42:47;100388.60;;;3.46
65290;BMP180;51893;59.754;10.110;2024-02-21T13:45:17;100400.00;;;3.50
65290;BMP180;51893;59.754;10.110;2024-02-21T13:47:45;100411.00;;;3.50
65290;BMP180;51893;59.754;10.110;2024-02-21T13:50:14;100407.60;;;3.50
65290;BMP180;51893;59.754;10.110;2024-02-21T13:52:43;100396.40;;;3.50
65290;BMP180;51893;59.754;10.110;2024-02-21T13:55:11;100395.00;;;3.50
65290;BMP180;51893;59.754;10.110;2024-02-21T13:57:39;100400.20;;;3.50
65290;BMP180;51893;59.754;10.110;2024-02-21T14:00:07;100395.00;;;3.50
65290;BMP180;51893;59.754;10.110;2024-02-21T14:02:39;100390.80;;;3.50
65290;BMP180;51893;59.754;10.110;2024-02-21T14:05:07;100392.80;;;3.50
65290;BMP180;51893;59.754;10.110;2024-02-21T14:07:38;100398.60;;;3.50